sensor_id;sensor_type;location;lat;lon;timestamp;pressure;altitude;pressure_sealevel;temperature;humidity
47742;BME280;33504;52.066;6.096;2023-05-24T00:00:04;102388.18;;;11.57;40.08
47742;BME280;33504;52.066;6.096;2023-05-24T00:02:31;102383.73;;;11.50;40.09
47742;BME280;33504;52.066;6.096;2023-05-24T00:04:59;102379.38;;;11.40;40.44
47742;BME280;33504;52.066;6.096;2023-05-24T00:07:25;102375.62;;;11.59;40.47
47742;BME280;33504;52.066;6.096;2023-05-24T00:09:52;102376.35;;;11.53;40.50
47742;BME280;33504;52.066;6.096;2023-05-24T00:12:19;102370.69;;;11.49;40.66
47742;BME280;33504;52.066;6.096;2023-05-24T00:14:46;102369.01;;;11.44;40.69
47742;BME280;33504;52.066;6.096;2023-05-24T00:17:13;102364.76;;;11.42;40.80
47742;BME280;33504;52.066;6.096;2023-05-24T00:19:41;102360.34;;;11.36;40.84
47742;BME280;33504;52.066;6.096;2023-05-24T00:22:08;102357.21;;;11.32;40.92
47742;BME280;33504;52.066;6.096;2023-05-24T00:24:35;102353.75;;;11.24;41.10
47742;BME280;33504;52.066;6.096;2023-05-24T00:27:02;102357.41;;;11.22;40.96
47742;BME280;33504;52.066;6.096;2023-05-24T00:29:29;102360.40;;;11.15;41.13
47742;BME280;33504;52.066;6.096;2023-05-24T00:31:55;102355.70;;;11.09;41.08
47742;BME280;33504;52.066;6.096;2023-05-24T00:34:22;102352.41;;;11.08;41.27
47742;BME280;33504;52.066;6.096;2023-05-24T00:36:50;102349.44;;;10.97;41.50
47742;BME280;33504;52.066;6.096;2023-05-24T00:39:17;102345.34;;;10.99;41.45
47742;BME280;33504;52.066;6.096;2023-05-24T00:41:44;102345.52;;;10.98;41.50
47742;BME280;33504;52.066;6.096;2023-05-24T00:44:11;102340.34;;;10.95;41.43
47742;BME280;33504;52.066;6.096;2023-05-24T00:46:38;102336.81;;;11.20;41.34
47742;BME280;33504;52.066;6.096;2023-05-24T00:49:05;102336.73;;;10.88;41.64
47742;BME280;33504;52.066;6.096;2023-05-24T00:51:32;102336.88;;;11.15;41.56
47742;BME280;33504;52.066;6.096;2023-05-24T00:54:00;102336.83;;;11.15;41.56
47742;BME280;33504;52.066;6.096;2023-05-24T00:56:27;102336.87;;;10.86;41.56
47742;BME280;33504;52.066;6.096;2023-05-24T00:58:54;102336.24;;;11.28;41.76
47742;BME280;33504;52.066;6.096;2023-05-24T01:01:21;102334.46;;;10.79;41.76
47742;BME280;33504;52.066;6.096;2023-05-24T01:03:49;102333.58;;;10.71;42.02
47742;BME280;33504;52.066;6.096;2023-05-24T01:06:16;102334.77;;;10.97;41.92
47742;BME280;33504;52.066;6.096;2023-05-24T01:08:53;102334.96;;;10.93;41.92
47742;BME280;33504;52.066;6.096;2023-05-24T01:11:29;102337.19;;;10.59;42.09
47742;BME280;33504;52.066;6.096;2023-05-24T01:14:05;102339.25;;;11.03;42.23
47742;BME280;33504;52.066;6.096;2023-05-24T01:16:41;102341.22;;;10.55;42.20
47742;BME280;33504;52.066;6.096;2023-05-24T01:19:39;102340.15;;;10.51;42.08
47742;BME280;33504;52.066;6.096;2023-05-24T01:22:17;102339.05;;;10.69;42.15
47742;BME280;33504;52.066;6.096;2023-05-24T01:24:58;102337.53;;;10.39;42.26
47742;BME280;33504;52.066;6.096;2023-05-24T01:27:29;102337.69;;;10.36;42.28
47742;BME280;33504;52.066;6.096;2023-05-24T01:29:58;102336.81;;;10.33;42.35
47742;BME280;33504;52.066;6.096;2023-05-24T01:32:26;102332.27;;;10.32;42.33
47742;BME280;33504;52.066;6.096;2023-05-24T01:34:53;102332.08;;;10.60;42.36
47742;BME280;33504;52.066;6.096;2023-05-24T01:37:19;102329.49;;;10.77;42.43
47742;BME280;33504;52.066;6.096;2023-05-24T01:39:47;102330.04;;;10.53;42.53
47742;BME280;33504;52.066;6.096;2023-05-24T01:42:21;102330.40;;;10.67;42.73
47742;BME280;33504;52.066;6.096;2023-05-24T01:44:55;102329.97;;;10.67;42.55
47742;BME280;33504;52.066;6.096;2023-05-24T01:47:30;102330.65;;;10.65;42.73
47742;BME280;33504;52.066;6.096;2023-05-24T01:50:07;102325.01;;;10.17;42.60
47742;BME280;33504;52.066;6.096;2023-05-24T01:52:36;102322.89;;;10.14;42.65
47742;BME280;33504;52.066;6.096;2023-05-24T01:55:07;102326.38;;;10.63;42.54
47742;BME280;33504;52.066;6.096;2023-05-24T01:57:35;102327.90;;;10.59;42.63
47742;BME280;33504;52.066;6.096;2023-05-24T02:00:05;102332.93;;;10.55;42.69
47742;BME280;33504;52.066;6.096;2023-05-24T02:02:33;102334.73;;;10.53;42.96
47742;BME280;33504;52.066;6.096;2023-05-24T02:05:00;102340.28;;;10.50;43.02
47742;BME280;33504;52.066;6.096;2023-05-24T02:07:27;102339.50;;;10.28;42.92
47742;BME280;33504;52.066;6.096;2023-05-24T02:09:54;102342.33;;;10.48;42.79
47742;BME280;33504;52.066;6.096;2023-05-24T02:12:21;102339.16;;;10.39;43.17
47742;BME280;33504;52.066;6.096;2023-05-24T02:14:48;102336.31;;;10.44;42.96
47742;BME280;33504;52.066;6.096;2023-05-24T02:17:15;102338.57;;;10.40;43.03
47742;BME280;33504;52.066;6.096;2023-05-24T02:19:42;102337.43;;;10.35;43.20
47742;BME280;33504;52.066;6.096;2023-05-24T02:22:09;102332.46;;;10.37;43.28
47742;BME280;33504;52.066;6.096;2023-05-24T02:24:35;102329.84;;;10.38;43.14
47742;BME280;33504;52.066;6.096;2023-05-24T02:27:03;102328.46;;;10.34;43.28
47742;BME280;33504;52.066;6.096;2023-05-24T02:29:30;102328.41;;;10.33;43.34
47742;BME280;33504;52.066;6.096;2023-05-24T02:31:57;102326.94;;;10.37;43.14
47742;BME280;33504;52.066;6.096;2023-05-24T02:34:24;102326.58;;;10.36;43.33
47742;BME280;33504;52.066;6.096;2023-05-24T02:36:51;102324.29;;;10.36;43.29
47742;BME280;33504;52.066;6.096;2023-05-24T02:39:18;102323.80;;;9.87;43.43
47742;BME280;33504;52.066;6.096;2023-05-24T02:41:44;102324.83;;;10.38;43.42
47742;BME280;33504;52.066;6.096;2023-05-24T02:44:11;102326.23;;;10.44;43.42
47742;BME280;33504;52.066;6.096;2023-05-24T02:46:38;102330.52;;;10.48;43.29
47742;BME280;33504;52.066;6.096;2023-05-24T02:49:04;102334.78;;;10.04;43.34
47742;BME280;33504;52.066;6.096;2023-05-24T02:51:31;102332.85;;;10.02;43.26
47742;BME280;33504;52.066;6.096;2023-05-24T02:53:58;102329.48;;;10.49;43.31
47742;BME280;33504;52.066;6.096;2023-05-24T02:56:26;102330.88;;;10.46;43.45
47742;BME280;33504;52.066;6.096;2023-05-24T02:58:53;102332.35;;;10.36;43.57
47742;BME280;33504;52.066;6.096;2023-05-24T03:01:20;102329.14;;;10.37;43.48
47742;BME280;33504;52.066;6.096;2023-05-24T03:03:47;102327.04;;;10.10;43.63
47742;BME280;33504;52.066;6.096;2023-05-24T03:06:14;102325.25;;;10.33;43.56
47742;BME280;33504;52.066;6.096;2023-05-24T03:08:41;102325.54;;;10.32;43.44
47742;BME280;33504;52.066;6.096;2023-05-24T03:11:08;102321.67;;;10.32;43.45
47742;BME280;33504;52.066;6.096;2023-05-24T03:13:35;102324.84;;;10.32;43.54
47742;BME280;33504;52.066;6.096;2023-05-24T03:16:02;102322.16;;;10.32;43.62
47742;BME280;33504;52.066;6.096;2023-05-24T03:18:29;102319.80;;;10.32;43.81
47742;BME280;33504;52.066;6.096;2023-05-24T03:20:56;102316.81;;;10.35;43.73
47742;BME280;33504;52.066;6.096;2023-05-24T03:23:23;102313.66;;;10.35;43.76
47742;BME280;33504;52.066;6.096;2023-05-24T03:25:49;102314.85;;;10.38;43.69
47742;BME280;33504;52.066;6.096;2023-05-24T03:28:16;102312.13;;;10.18;43.78
47742;BME280;33504;52.066;6.096;2023-05-24T03:30:43;102315.21;;;10.36;43.91
47742;BME280;33504;52.066;6.096;2023-05-24T03:33:10;102315.81;;;10.38;43.91
47742;BME280;33504;52.066;6.096;2023-05-24T03:35:38;102313.91;;;10.37;43.80
47742;BME280;33504;52.066;6.096;2023-05-24T03:38:05;102312.94;;;10.33;43.78
47742;BME280;33504;52.066;6.096;2023-05-24T03:40:32;102312.20;;;10.30;43.77
47742;BME280;33504;52.066;6.096;2023-05-24T03:42:59;102313.29;;;10.25;43.83
47742;BME280;33504;52.066;6.096;2023-05-24T03:45:26;102314.28;;;9.98;43.83
47742;BME280;33504;52.066;6.096;2023-05-24T03:47:53;102310.39;;;10.20;43.91
47742;BME280;33504;52.066;6.096;2023-05-24T03:50:20;102309.79;;;10.17;43.97
47742;BME280;33504;52.066;6.096;2023-05-24T03:52:47;102310.93;;;10.21;43.91
47742;BME280;33504;52.066;6.096;2023-05-24T03:55:14;102312.44;;;10.44;44.10
47742;BME280;33504;52.066;6.096;2023-05-24T03:57:41;102313.67;;;10.23;44.18
47742;BME280;33504;52.066;6.096;2023-05-24T04:00:09;102314.75;;;10.29;44.10
47742;BME280;33504;52.066;6.096;2023-05-24T04:02:37;102314.52;;;10.53;44.17
47742;BME280;33504;52.066;6.096;2023-05-24T04:05:04;102316.22;;;10.31;44.19
47742;BME280;33504;52.066;6.096;2023-05-24T04:07:31;102313.77;;;10.25;44.34
47742;BME280;33504;52.066;6.096;2023-05-24T04:09:58;102315.51;;;10.05;43.91
47742;BME280;33504;52.066;6.096;2023-05-24T04:12:25;102318.60;;;10.09;43.51
47742;BME280;33504;52.066;6.096;2023-05-24T04:14:52;102322.20;;;10.28;43.47
47742;BME280;33504;52.066;6.096;2023-05-24T04:17:19;102318.27;;;10.25;43.92
47742;BME280;33504;52.066;6.096;2023-05-24T04:19:46;102321.34;;;10.30;44.00
47742;BME280;33504;52.066;6.096;2023-05-24T04:22:13;102322.59;;;10.33;43.88
47742;BME280;33504;52.066;6.096;2023-05-24T04:24:39;102321.46;;;10.36;43.79
47742;BME280;33504;52.066;6.096;2023-05-24T04:27:07;102321.04;;;10.44;43.91
47742;BME280;33504;52.066;6.096;2023-05-24T04:29:35;102324.86;;;10.25;44.28
47742;BME280;33504;52.066;6.096;2023-05-24T04:32:02;102326.89;;;10.33;44.59
47742;BME280;33504;52.066;6.096;2023-05-24T04:34:29;102325.12;;;10.20;44.68
47742;BME280;33504;52.066;6.096;2023-05-24T04:36:56;102326.68;;;10.57;44.69
47742;BME280;33504;52.066;6.096;2023-05-24T04:39:23;102328.44;;;10.89;44.73
47742;BME280;33504;52.066;6.096;2023-05-24T04:41:49;102329.96;;;10.98;44.85
47742;BME280;33504;52.066;6.096;2023-05-24T04:44:16;102331.51;;;10.65;44.71
47742;BME280;33504;52.066;6.096;2023-05-24T04:46:44;102335.48;;;10.77;44.75
47742;BME280;33504;52.066;6.096;2023-05-24T04:49:11;102336.99;;;11.42;44.65
47742;BME280;33504;52.066;6.096;2023-05-24T04:51:38;102338.35;;;11.33;44.62
47742;BME280;33504;52.066;6.096;2023-05-24T04:54:05;102336.71;;;11.22;44.52
47742;BME280;33504;52.066;6.096;2023-05-24T04:56:32;102333.34;;;11.32;44.58
47742;BME280;33504;52.066;6.096;2023-05-24T04:58:59;102332.96;;;11.45;44.55
47742;BME280;33504;52.066;6.096;2023-05-24T05:01:26;102337.26;;;11.60;44.46
47742;BME280;33504;52.066;6.096;2023-05-24T05:03:53;102335.65;;;11.73;44.43
47742;BME280;33504;52.066;6.096;2023-05-24T05:06:21;102333.85;;;11.76;44.28
47742;BME280;33504;52.066;6.096;2023-05-24T05:08:48;102334.30;;;11.82;44.25
47742;BME280;33504;52.066;6.096;2023-05-24T05:11:15;102335.38;;;11.85;44.32
47742;BME280;33504;52.066;6.096;2023-05-24T05:13:42;102336.87;;;11.91;44.25
47742;BME280;33504;52.066;6.096;2023-05-24T05:16:09;102334.60;;;11.98;44.34
47742;BME280;33504;52.066;6.096;2023-05-24T05:18:36;102338.32;;;12.10;44.36
47742;BME280;33504;52.066;6.096;2023-05-24T05:21:03;102337.14;;;12.00;44.26
47742;BME280;33504;52.066;6.096;2023-05-24T05:23:30;102334.62;;;11.87;44.27
47742;BME280;33504;52.066;6.096;2023-05-24T05:25:57;102338.60;;;11.96;44.16
47742;BME280;33504;52.066;6.096;2023-05-24T05:28:24;102337.85;;;12.27;44.22
47742;BME280;33504;52.066;6.096;2023-05-24T05:30:51;102339.11;;;12.15;44.16
47742;BME280;33504;52.066;6.096;2023-05-24T05:33:19;102336.31;;;12.51;44.38
47742;BME280;33504;52.066;6.096;2023-05-24T05:35:46;102337.44;;;12.63;44.66
47742;BME280;33504;52.066;6.096;2023-05-24T05:38:13;102335.47;;;12.81;44.46
47742;BME280;33504;52.066;6.096;2023-05-24T05:40:40;102329.98;;;12.69;44.44
47742;BME280;33504;52.066;6.096;2023-05-24T05:43:07;102325.50;;;12.79;44.45
47742;BME280;33504;52.066;6.096;2023-05-24T05:45:34;102325.38;;;12.97;44.37
47742;BME280;33504;52.066;6.096;2023-05-24T05:48:01;102331.69;;;13.15;44.26
47742;BME280;33504;52.066;6.096;2023-05-24T05:50:28;102332.78;;;12.94;44.19
47742;BME280;33504;52.066;6.096;2023-05-24T05:52:55;102334.74;;;12.92;44.12
47742;BME280;33504;52.066;6.096;2023-05-24T05:55:22;102335.42;;;13.12;44.57
47742;BME280;33504;52.066;6.096;2023-05-24T05:57:49;102333.74;;;13.19;43.98
47742;BME280;33504;52.066;6.096;2023-05-24T06:00:18;102334.43;;;13.37;43.74
47742;BME280;33504;52.066;6.096;2023-05-24T06:02:45;102336.15;;;13.55;43.61
47742;BME280;33504;52.066;6.096;2023-05-24T06:05:12;102336.09;;;13.71;43.50
47742;BME280;33504;52.066;6.096;2023-05-24T06:07:40;102343.96;;;13.80;43.42
47742;BME280;33504;52.066;6.096;2023-05-24T06:10:07;102352.15;;;14.07;43.25
47742;BME280;33504;52.066;6.096;2023-05-24T06:12:34;102352.35;;;14.33;43.18
47742;BME280;33504;52.066;6.096;2023-05-24T06:15:01;102344.62;;;14.52;42.86
47742;BME280;33504;52.066;6.096;2023-05-24T06:17:28;102347.50;;;14.47;42.63
47742;BME280;33504;52.066;6.096;2023-05-24T06:19:55;102354.57;;;14.56;42.45
47742;BME280;33504;52.066;6.096;2023-05-24T06:22:22;102360.43;;;14.49;42.29
47742;BME280;33504;52.066;6.096;2023-05-24T06:24:49;102362.46;;;14.88;42.01
47742;BME280;33504;52.066;6.096;2023-05-24T06:27:16;102359.87;;;14.88;42.05
47742;BME280;33504;52.066;6.096;2023-05-24T06:29:43;102361.33;;;14.96;41.78
47742;BME280;33504;52.066;6.096;2023-05-24T06:32:09;102361.14;;;15.08;41.22
47742;BME280;33504;52.066;6.096;2023-05-24T06:34:37;102361.48;;;15.20;41.24
47742;BME280;33504;52.066;6.096;2023-05-24T06:37:03;102360.19;;;15.43;41.00
47742;BME280;33504;52.066;6.096;2023-05-24T06:39:30;102362.75;;;15.27;40.67
47742;BME280;33504;52.066;6.096;2023-05-24T06:41:57;102362.27;;;15.39;41.00
47742;BME280;33504;52.066;6.096;2023-05-24T06:44:24;102363.18;;;15.08;40.46
47742;BME280;33504;52.066;6.096;2023-05-24T06:46:51;102363.04;;;15.44;40.11
47742;BME280;33504;52.066;6.096;2023-05-24T06:49:18;102363.32;;;15.18;39.90
47742;BME280;33504;52.066;6.096;2023-05-24T06:51:45;102360.99;;;15.14;39.80
47742;BME280;33504;52.066;6.096;2023-05-24T06:54:12;102361.30;;;15.15;40.18
47742;BME280;33504;52.066;6.096;2023-05-24T06:56:38;102362.60;;;15.41;39.78
47742;BME280;33504;52.066;6.096;2023-05-24T06:59:05;102362.62;;;14.97;39.32
47742;BME280;33504;52.066;6.096;2023-05-24T07:01:33;102364.61;;;15.12;38.98
47742;BME280;33504;52.066;6.096;2023-05-24T07:03:59;102363.05;;;15.14;38.82
47742;BME280;33504;52.066;6.096;2023-05-24T07:06:26;102366.87;;;15.31;38.81
47742;BME280;33504;52.066;6.096;2023-05-24T07:08:53;102365.98;;;15.25;38.70
47742;BME280;33504;52.066;6.096;2023-05-24T07:11:19;102368.84;;;15.52;38.40
47742;BME280;33504;52.066;6.096;2023-05-24T07:13:47;102372.71;;;15.97;37.44
47742;BME280;33504;52.066;6.096;2023-05-24T07:16:14;102378.35;;;16.04;37.41
47742;BME280;33504;52.066;6.096;2023-05-24T07:18:41;102379.16;;;16.04;37.18
47742;BME280;33504;52.066;6.096;2023-05-24T07:21:08;102382.00;;;16.03;37.14
47742;BME280;33504;52.066;6.096;2023-05-24T07:23:36;102382.44;;;16.11;36.82
47742;BME280;33504;52.066;6.096;2023-05-24T07:26:04;102381.31;;;16.31;36.55
47742;BME280;33504;52.066;6.096;2023-05-24T07:28:31;102381.18;;;16.21;36.30
47742;BME280;33504;52.066;6.096;2023-05-24T07:30:58;102379.58;;;16.51;36.55
47742;BME280;33504;52.066;6.096;2023-05-24T07:33:24;102382.08;;;16.68;36.37
47742;BME280;33504;52.066;6.096;2023-05-24T07:35:51;102381.72;;;16.18;36.79
47742;BME280;33504;52.066;6.096;2023-05-24T07:38:18;102380.94;;;16.70;36.34
47742;BME280;33504;52.066;6.096;2023-05-24T07:40:45;102380.98;;;16.33;35.81
47742;BME280;33504;52.066;6.096;2023-05-24T07:43:13;102385.79;;;16.47;35.79
47742;BME280;33504;52.066;6.096;2023-05-24T07:45:41;102382.32;;;16.19;35.74
47742;BME280;33504;52.066;6.096;2023-05-24T07:48:08;102377.13;;;16.48;35.95
47742;BME280;33504;52.066;6.096;2023-05-24T07:50:35;102375.76;;;16.59;35.78
47742;BME280;33504;52.066;6.096;2023-05-24T07:53:02;102372.04;;;16.49;35.77
47742;BME280;33504;52.066;6.096;2023-05-24T07:55:29;102369.50;;;16.82;35.62
47742;BME280;33504;52.066;6.096;2023-05-24T07:57:55;102366.28;;;16.68;35.86
47742;BME280;33504;52.066;6.096;2023-05-24T08:00:22;102374.37;;;16.87;35.85
47742;BME280;33504;52.066;6.096;2023-05-24T08:02:49;102373.74;;;16.85;35.33
47742;BME280;33504;52.066;6.096;2023-05-24T08:05:17;102377.64;;;16.42;35.46
47742;BME280;33504;52.066;6.096;2023-05-24T08:07:44;102372.88;;;16.83;35.32
47742;BME280;33504;52.066;6.096;2023-05-24T08:10:11;102374.43;;;16.76;35.45
47742;BME280;33504;52.066;6.096;2023-05-24T08:12:39;102376.06;;;17.11;35.14
47742;BME280;33504;52.066;6.096;2023-05-24T08:15:07;102375.31;;;16.75;35.70
47742;BME280;33504;52.066;6.096;2023-05-24T08:17:35;102376.64;;;16.46;35.70
47742;BME280;33504;52.066;6.096;2023-05-24T08:20:03;102373.95;;;17.06;35.87
47742;BME280;33504;52.066;6.096;2023-05-24T08:22:29;102374.79;;;17.09;35.52
47742;BME280;33504;52.066;6.096;2023-05-24T08:24:56;102378.58;;;17.44;35.53
47742;BME280;33504;52.066;6.096;2023-05-24T08:27:23;102378.15;;;17.22;35.03
47742;BME280;33504;52.066;6.096;2023-05-24T08:29:49;102372.75;;;17.26;34.76
47742;BME280;33504;52.066;6.096;2023-05-24T08:32:16;102367.40;;;17.09;34.99
47742;BME280;33504;52.066;6.096;2023-05-24T08:34:43;102367.50;;;17.50;34.86
47742;BME280;33504;52.066;6.096;2023-05-24T08:37:10;102372.24;;;17.45;34.69
47742;BME280;33504;52.066;6.096;2023-05-24T08:39:37;102372.96;;;17.92;33.59
47742;BME280;33504;52.066;6.096;2023-05-24T08:42:05;102370.95;;;18.49;33.26
47742;BME280;33504;52.066;6.096;2023-05-24T08:44:40;102369.03;;;18.35;33.54
47742;BME280;33504;52.066;6.096;2023-05-24T08:47:08;102371.61;;;18.43;32.80
47742;BME280;33504;52.066;6.096;2023-05-24T08:49:36;102365.85;;;18.34;32.67
47742;BME280;33504;52.066;6.096;2023-05-24T08:52:04;102367.12;;;18.54;32.40
47742;BME280;33504;52.066;6.096;2023-05-24T08:54:32;102362.02;;;18.62;32.32
47742;BME280;33504;52.066;6.096;2023-05-24T08:57:00;102360.20;;;18.66;31.85
47742;BME280;33504;52.066;6.096;2023-05-24T08:59:27;102365.85;;;18.27;32.21
47742;BME280;33504;52.066;6.096;2023-05-24T09:01:54;102365.38;;;18.76;32.39
47742;BME280;33504;52.066;6.096;2023-05-24T09:04:23;102364.67;;;18.68;31.90
47742;BME280;33504;52.066;6.096;2023-05-24T09:06:53;102360.87;;;18.44;32.05
47742;BME280;33504;52.066;6.096;2023-05-24T09:09:21;102361.15;;;18.54;31.85
47742;BME280;33504;52.066;6.096;2023-05-24T09:11:51;102361.11;;;18.50;31.38
47742;BME280;33504;52.066;6.096;2023-05-24T09:14:19;102363.06;;;18.56;31.48
47742;BME280;33504;52.066;6.096;2023-05-24T09:16:46;102368.24;;;18.34;31.91
47742;BME280;33504;52.066;6.096;2023-05-24T09:19:14;102365.09;;;18.18;31.86
47742;BME280;33504;52.066;6.096;2023-05-24T09:21:42;102365.16;;;18.05;32.31
47742;BME280;33504;52.066;6.096;2023-05-24T09:24:10;102361.56;;;18.20;31.53
47742;BME280;33504;52.066;6.096;2023-05-24T09:26:37;102363.95;;;18.26;31.79
47742;BME280;33504;52.066;6.096;2023-05-24T09:29:06;102363.04;;;18.44;32.09
47742;BME280;33504;52.066;6.096;2023-05-24T09:31:35;102364.88;;;18.49;32.07
47742;BME280;33504;52.066;6.096;2023-05-24T09:34:02;102363.56;;;18.98;31.81
47742;BME280;33504;52.066;6.096;2023-05-24T09:36:31;102363.91;;;19.05;31.56
47742;BME280;33504;52.066;6.096;2023-05-24T09:39:07;102361.06;;;19.18;31.49
47742;BME280;33504;52.066;6.096;2023-05-24T09:41:35;102364.81;;;18.78;31.63
47742;BME280;33504;52.066;6.096;2023-05-24T09:44:02;102369.33;;;19.24;31.53
47742;BME280;33504;52.066;6.096;2023-05-24T09:46:34;102370.49;;;19.14;31.69
47742;BME280;33504;52.066;6.096;2023-05-24T09:49:02;102367.78;;;19.44;31.30
47742;BME280;33504;52.066;6.096;2023-05-24T09:51:29;102371.35;;;19.41;31.34
47742;BME280;33504;52.066;6.096;2023-05-24T09:53:57;102370.64;;;19.24;31.00
47742;BME280;33504;52.066;6.096;2023-05-24T09:56:24;102370.79;;;19.02;31.61
47742;BME280;33504;52.066;6.096;2023-05-24T09:58:50;102371.92;;;19.26;31.22
47742;BME280;33504;52.066;6.096;2023-05-24T10:01:19;102362.90;;;19.77;30.76
47742;BME280;33504;52.066;6.096;2023-05-24T10:03:57;102363.49;;;19.36;30.84
47742;BME280;33504;52.066;6.096;2023-05-24T10:06:24;102362.55;;;20.37;30.25
47742;BME280;33504;52.066;6.096;2023-05-24T10:08:51;102359.79;;;20.88;30.31
47742;BME280;33504;52.066;6.096;2023-05-24T10:11:19;102361.80;;;20.66;29.80
47742;BME280;33504;52.066;6.096;2023-05-24T10:13:47;102359.61;;;20.93;28.55
47742;BME280;33504;52.066;6.096;2023-05-24T10:16:15;102363.67;;;21.19;29.30
47742;BME280;33504;52.066;6.096;2023-05-24T10:18:42;102361.05;;;21.38;28.57
47742;BME280;33504;52.066;6.096;2023-05-24T10:21:09;102348.48;;;21.88;27.84
47742;BME280;33504;52.066;6.096;2023-05-24T10:23:38;102347.71;;;21.84;27.77
47742;BME280;33504;52.066;6.096;2023-05-24T10:26:06;102352.05;;;21.80;27.72
47742;BME280;33504;52.066;6.096;2023-05-24T10:28:37;102349.79;;;21.50;26.98
47742;BME280;33504;52.066;6.096;2023-05-24T10:31:09;102357.01;;;21.19;27.62
47742;BME280;33504;52.066;6.096;2023-05-24T10:33:38;102356.26;;;21.89;27.41
47742;BME280;33504;52.066;6.096;2023-05-24T10:36:08;102356.78;;;21.10;27.62
47742;BME280;33504;52.066;6.096;2023-05-24T10:38:37;102352.69;;;21.19;27.74
47742;BME280;33504;52.066;6.096;2023-05-24T10:41:04;102348.60;;;21.38;27.28
47742;BME280;33504;52.066;6.096;2023-05-24T10:43:31;102344.84;;;22.27;27.46
47742;BME280;33504;52.066;6.096;2023-05-24T10:45:58;102339.46;;;22.88;26.53
47742;BME280;33504;52.066;6.096;2023-05-24T10:48:41;102340.06;;;22.56;26.31
47742;BME280;33504;52.066;6.096;2023-05-24T10:51:41;102341.31;;;22.78;26.65
47742;BME280;33504;52.066;6.096;2023-05-24T10:54:10;102342.56;;;22.14;26.75
47742;BME280;33504;52.066;6.096;2023-05-24T10:56:39;102335.21;;;22.02;26.69
47742;BME280;33504;52.066;6.096;2023-05-24T10:59:06;102332.61;;;22.11;27.17
47742;BME280;33504;52.066;6.096;2023-05-24T11:01:35;102327.27;;;22.40;26.94
47742;BME280;33504;52.066;6.096;2023-05-24T11:04:08;102328.36;;;22.42;26.34
47742;BME280;33504;52.066;6.096;2023-05-24T11:07:09;102327.27;;;22.59;27.16
47742;BME280;33504;52.066;6.096;2023-05-24T11:09:37;102329.37;;;21.97;26.88
47742;BME280;33504;52.066;6.096;2023-05-24T11:12:07;102334.04;;;21.51;26.89
47742;BME280;33504;52.066;6.096;2023-05-24T11:14:37;102329.04;;;21.26;26.98
47742;BME280;33504;52.066;6.096;2023-05-24T11:17:04;102325.89;;;21.93;27.50
47742;BME280;33504;52.066;6.096;2023-05-24T11:19:33;102324.63;;;21.88;27.28
47742;BME280;33504;52.066;6.096;2023-05-24T11:22:02;102335.15;;;21.14;27.04
47742;BME280;33504;52.066;6.096;2023-05-24T11:24:29;102326.28;;;21.32;27.24
47742;BME280;33504;52.066;6.096;2023-05-24T11:26:58;102332.49;;;21.23;27.73
47742;BME280;33504;52.066;6.096;2023-05-24T11:29:25;102332.54;;;21.29;27.63
47742;BME280;33504;52.066;6.096;2023-05-24T11:31:53;102331.64;;;21.65;26.76
47742;BME280;33504;52.066;6.096;2023-05-24T11:34:21;102330.64;;;21.70;27.04
47742;BME280;33504;52.066;6.096;2023-05-24T11:36:49;102326.79;;;21.71;26.58
47742;BME280;33504;52.066;6.096;2023-05-24T11:39:17;102319.68;;;22.34;26.29
47742;BME280;33504;52.066;6.096;2023-05-24T11:41:44;102322.32;;;22.40;26.30
47742;BME280;33504;52.066;6.096;2023-05-24T11:44:16;102329.73;;;22.14;26.03
47742;BME280;33504;52.066;6.096;2023-05-24T11:46:43;102326.56;;;22.08;25.80
47742;BME280;33504;52.066;6.096;2023-05-24T11:49:12;102323.90;;;21.87;25.75
47742;BME280;33504;52.066;6.096;2023-05-24T11:51:39;102324.71;;;21.96;25.53
47742;BME280;33504;52.066;6.096;2023-05-24T11:54:07;102322.85;;;21.95;26.43
47742;BME280;33504;52.066;6.096;2023-05-24T11:56:34;102321.80;;;21.94;26.92
47742;BME280;33504;52.066;6.096;2023-05-24T11:59:08;102324.04;;;22.09;26.34
47742;BME280;33504;52.066;6.096;2023-05-24T12:01:35;102321.47;;;21.82;26.06
47742;BME280;33504;52.066;6.096;2023-05-24T12:04:04;102326.31;;;21.58;26.08
47742;BME280;33504;52.066;6.096;2023-05-24T12:06:36;102320.70;;;21.91;26.60
47742;BME280;33504;52.066;6.096;2023-05-24T12:09:04;102313.99;;;22.79;26.28
47742;BME280;33504;52.066;6.096;2023-05-24T12:11:31;102315.68;;;22.78;25.80
47742;BME280;33504;52.066;6.096;2023-05-24T12:13:59;102316.01;;;22.85;26.35
47742;BME280;33504;52.066;6.096;2023-05-24T12:16:26;102316.91;;;22.81;26.03
47742;BME280;33504;52.066;6.096;2023-05-24T12:18:54;102315.54;;;22.46;25.80
47742;BME280;33504;52.066;6.096;2023-05-24T12:21:22;102312.81;;;22.99;25.77
47742;BME280;33504;52.066;6.096;2023-05-24T12:23:48;102319.18;;;22.52;26.19
47742;BME280;33504;52.066;6.096;2023-05-24T12:26:17;102320.37;;;21.66;26.42
47742;BME280;33504;52.066;6.096;2023-05-24T12:28:44;102313.76;;;21.78;25.80
47742;BME280;33504;52.066;6.096;2023-05-24T12:31:11;102315.63;;;22.18;25.93
47742;BME280;33504;52.066;6.096;2023-05-24T12:33:39;102314.00;;;22.46;25.96
47742;BME280;33504;52.066;6.096;2023-05-24T12:36:06;102311.89;;;22.61;25.52
47742;BME280;33504;52.066;6.096;2023-05-24T12:38:33;102312.28;;;22.10;25.41
47742;BME280;33504;52.066;6.096;2023-05-24T12:41:01;102312.12;;;21.83;25.84
47742;BME280;33504;52.066;6.096;2023-05-24T12:43:28;102308.43;;;21.97;25.90
47742;BME280;33504;52.066;6.096;2023-05-24T12:45:54;102308.95;;;21.85;26.58
47742;BME280;33504;52.066;6.096;2023-05-24T12:48:22;102315.43;;;22.05;26.78
47742;BME280;33504;52.066;6.096;2023-05-24T12:50:49;102314.23;;;21.50;26.57
47742;BME280;33504;52.066;6.096;2023-05-24T12:53:17;102309.69;;;21.83;26.43